sensor_id;sensor_type;location;lat;lon;timestamp;P1;P2;P0
47711;PMS7003;57457;51.634;5.886;2023-11-19T00:13:03;6.61;8.62;6.11
47711;PMS7003;57457;51.634;5.886;2023-11-19T00:26:23;9.01;9.82;6.44
47711;PMS7003;57457;51.634;5.886;2023-11-19T00:39:43;6.37;8.73;6.11
47711;PMS7003;57457;51.634;5.886;2023-11-19T01:06:22;8.77;8.73;5.68
47711;PMS7003;57457;51.634;5.886;2023-11-19T01:19:41;3.6;5.79;4.37
47711;PMS7003;57457;51.634;5.886;2023-11-19T01:33:01;9.49;6.22;4.15
47711;PMS7003;57457;51.634;5.886;2023-11-19T01:46:21;5.17;5.24;3.5
47711;PMS7003;57457;51.634;5.886;2023-11-19T01:59:40;4.09;5.02;3.06
47711;PMS7003;57457;51.634;5.886;2023-11-19T02:13:00;6.01;4.8;3.06
47711;PMS7003;57457;51.634;5.886;2023-11-19T02:26:20;4.81;4.15;2.84
47711;PMS7003;57457;51.634;5.886;2023-11-19T02:39:39;4.21;5.35;2.95
47711;PMS7003;57457;51.634;5.886;2023-11-19T02:52:59;5.41;6.22;3.5
47711;PMS7003;57457;51.634;5.886;2023-11-19T03:06:18;7.21;6.66;3.28
47711;PMS7003;57457;51.634;5.886;2023-11-19T03:19:38;9.37;6.88;3.39
47711;PMS7003;57457;51.634;5.886;2023-11-19T03:32:58;10.57;6.11;3.06
47711;PMS7003;57457;51.634;5.886;2023-11-19T03:46:17;7.57;6.11;2.62
47711;PMS7003;57457;51.634;5.886;2023-11-19T03:59:37;6.61;5.79;2.62
47711;PMS7003;57457;51.634;5.886;2023-11-19T04:12:57;6.13;5.13;2.41
47711;PMS7003;57457;51.634;5.886;2023-11-19T04:26:16;6.61;5.9;2.41
47711;PMS7003;57457;51.634;5.886;2023-11-19T04:39:36;10.93;6.33;2.62
47711;PMS7003;57457;51.634;5.886;2023-11-19T04:52:55;9.85;6.11;2.19
47711;PMS7003;57457;51.634;5.886;2023-11-19T05:06:15;10.81;6.33;3.17
47711;PMS7003;57457;51.634;5.886;2023-11-19T05:19:35;12.97;6.77;3.06
47711;PMS7003;57457;51.634;5.886;2023-11-19T05:32:54;13.33;6.66;3.28
47711;PMS7003;57457;51.634;5.886;2023-11-19T05:46:14;7.81;6.55;2.95
47711;PMS7003;57457;51.634;5.886;2023-11-19T05:59:34;11.53;6.33;2.52
47711;PMS7003;57457;51.634;5.886;2023-11-19T06:12:53;15.97;6.0;2.52
47711;PMS7003;57457;51.634;5.886;2023-11-19T06:26:13;11.17;7.09;2.3
47711;PMS7003;57457;51.634;5.886;2023-11-19T06:39:32;8.77;6.77;2.41
47711;PMS7003;57457;51.634;5.886;2023-11-19T06:52:52;11.77;7.09;2.62
47711;PMS7003;57457;51.634;5.886;2023-11-19T07:06:12;8.53;6.99;2.52
47711;PMS7003;57457;51.634;5.886;2023-11-19T07:19:31;9.13;6.11;2.41
47711;PMS7003;57457;51.634;5.886;2023-11-19T07:32:51;9.73;6.22;2.52
47711;PMS7003;57457;51.634;5.886;2023-11-19T07:46:11;9.49;5.79;2.19
47711;PMS7003;57457;51.634;5.886;2023-11-19T07:59:30;18.49;6.44;2.19
47711;PMS7003;57457;51.634;5.886;2023-11-19T08:12:50;17.53;6.66;2.41
47711;PMS7003;57457;51.634;5.886;2023-11-19T08:26:09;8.53;5.68;2.19
47711;PMS7003;57457;51.634;5.886;2023-11-19T08:39:29;7.45;6.22;2.41
47711;PMS7003;57457;51.634;5.886;2023-11-19T08:52:49;11.17;5.46;2.3
47711;PMS7003;57457;51.634;5.886;2023-11-19T09:06:08;10.93;6.22;2.19
47711;PMS7003;57457;51.634;5.886;2023-11-19T09:19:28;11.17;6.44;2.19
47711;PMS7003;57457;51.634;5.886;2023-11-19T09:32:47;10.45;6.77;2.19
47711;PMS7003;57457;51.634;5.886;2023-11-19T09:46:07;9.61;6.99;2.41
47711;PMS7003;57457;51.634;5.886;2023-11-19T09:59:26;8.05;6.55;2.3
47711;PMS7003;57457;51.634;5.886;2023-11-19T10:12:46;12.73;6.33;2.62
47711;PMS7003;57457;51.634;5.886;2023-11-19T10:26:06;7.57;6.0;2.73
47711;PMS7003;57457;51.634;5.886;2023-11-19T10:39:25;5.41;6.33;2.52
47711;PMS7003;57457;51.634;5.886;2023-11-19T10:52:45;7.45;6.22;2.41
47711;PMS7003;57457;51.634;5.886;2023-11-19T11:06:05;7.57;5.57;2.3
47711;PMS7003;57457;51.634;5.886;2023-11-19T11:19:24;6.73;5.68;2.52
47711;PMS7003;57457;51.634;5.886;2023-11-19T11:32:44;9.85;5.57;2.41
47711;PMS7003;57457;51.634;5.886;2023-11-19T11:46:03;9.97;5.68;2.08
47711;PMS7003;57457;51.634;5.886;2023-11-19T11:59:23;5.17;5.46;1.97
47711;PMS7003;57457;51.634;5.886;2023-11-19T12:12:43;9.85;5.02;1.97
47711;PMS7003;57457;51.634;5.886;2023-11-19T12:26:02;3.6;5.02;2.19
47711;PMS7003;57457;51.634;5.886;2023-11-19T12:39:22;7.33;4.8;1.97
47711;PMS7003;57457;51.634;5.886;2023-11-19T12:52:41;5.41;4.91;2.19
47711;PMS7003;57457;51.634;5.886;2023-11-19T13:06:01;6.85;5.57;2.3
47711;PMS7003;57457;51.634;5.886;2023-11-19T13:19:21;4.45;5.13;1.97
47711;PMS7003;57457;51.634;5.886;2023-11-19T13:32:40;12.25;5.57;2.3
47711;PMS7003;57457;51.634;5.886;2023-11-19T13:46:00;7.21;5.13;2.3
47711;PMS7003;57457;51.634;5.886;2023-11-19T13:59:20;4.93;4.04;2.08
47711;PMS7003;57457;51.634;5.886;2023-11-19T14:12:39;7.93;4.7;2.08
47711;PMS7003;57457;51.634;5.886;2023-11-19T14:25:59;4.93;5.57;2.3
47711;PMS7003;57457;51.634;5.886;2023-11-19T14:39:18;4.45;4.26;2.19
47711;PMS7003;57457;51.634;5.886;2023-11-19T14:52:38;2.4;4.91;2.3
47711;PMS7003;57457;51.634;5.886;2023-11-19T15:05:58;5.53;5.46;2.19
47711;PMS7003;57457;51.634;5.886;2023-11-19T15:19:17;10.09;4.59;2.19
47711;PMS7003;57457;51.634;5.886;2023-11-19T15:32:37;6.25;5.35;2.3
47711;PMS7003;57457;51.634;5.886;2023-11-19T15:45:57;3.97;4.48;2.3
47711;PMS7003;57457;51.634;5.886;2023-11-19T15:59:16;3.73;5.35;2.3
47711;PMS7003;57457;51.634;5.886;2023-11-19T16:12:36;11.29;5.13;2.19
47711;PMS7003;57457;51.634;5.886;2023-11-19T16:25:56;3.36;4.91;2.41
47711;PMS7003;57457;51.634;5.886;2023-11-19T16:39:15;9.85;6.0;2.95
47711;PMS7003;57457;51.634;5.886;2023-11-19T16:52:35;6.49;5.02;2.52
47711;PMS7003;57457;51.634;5.886;2023-11-19T17:05:54;9.01;6.0;2.41
47711;PMS7003;57457;51.634;5.886;2023-11-19T17:19:14;9.97;7.64;3.5
47711;PMS7003;57457;51.634;5.886;2023-11-19T17:32:34;9.73;6.66;2.95
47711;PMS7003;57457;51.634;5.886;2023-11-19T17:45:53;4.93;6.55;2.73
47711;PMS7003;57457;51.634;5.886;2023-11-19T17:59:13;7.33;6.66;3.28
47711;PMS7003;57457;51.634;5.886;2023-11-19T18:12:32;9.85;5.9;3.17
47711;PMS7003;57457;51.634;5.886;2023-11-19T18:25:52;18.37;15.81;9.06
47711;PMS7003;57457;51.634;5.886;2023-11-19T18:39:12;8.65;4.7;2.52
47711;PMS7003;57457;51.634;5.886;2023-11-19T18:52:31;11.41;5.35;2.73
47711;PMS7003;57457;51.634;5.886;2023-11-19T19:05:51;2.28;4.7;2.95
47711;PMS7003;57457;51.634;5.886;2023-11-19T19:19:11;5.17;4.48;2.62
47711;PMS7003;57457;51.634;5.886;2023-11-19T19:32:30;6.97;5.13;2.62
47711;PMS7003;57457;51.634;5.886;2023-11-19T19:45:50;5.41;5.24;3.06
47711;PMS7003;57457;51.634;5.886;2023-11-19T19:59:10;4.69;6.33;4.15
47711;PMS7003;57457;51.634;5.886;2023-11-19T20:12:29;5.17;5.9;3.5
47711;PMS7003;57457;51.634;5.886;2023-11-19T20:25:49;7.93;6.55;3.61
47711;PMS7003;57457;51.634;5.886;2023-11-19T20:39:08;9.97;6.99;3.61
47711;PMS7003;57457;51.634;5.886;2023-11-19T20:52:28;3.73;5.57;3.39
47711;PMS7003;57457;51.634;5.886;2023-11-19T21:05:48;6.01;5.46;2.84
47711;PMS7003;57457;51.634;5.886;2023-11-19T21:19:07;5.53;5.46;2.95
47711;PMS7003;57457;51.634;5.886;2023-11-19T21:45:47;8.29;6.55;3.61
47711;PMS7003;57457;51.634;5.886;2023-11-19T21:59:06;4.09;5.68;3.17
47711;PMS7003;57457;51.634;5.886;2023-11-19T22:12:26;2.64;5.13;3.28
47711;PMS7003;57457;51.634;5.886;2023-11-19T22:25:45;4.21;6.0;3.39
47711;PMS7003;57457;51.634;5.886;2023-11-19T22:39:05;6.49;6.55;3.39
47711;PMS7003;57457;51.634;5.886;2023-11-19T22:52:25;5.89;6.0;3.82
47711;PMS7003;57457;51.634;5.886;2023-11-19T23:05:44;7.45;6.88;3.93
47711;PMS7003;57457;51.634;5.886;2023-11-19T23:32:23;4.69;6.33;3.61
47711;PMS7003;57457;51.634;5.886;2023-11-19T23:45:43;4.45;6.22;3.71
47711;PMS7003;57457;51.634;5.886;2023-11-19T23:59:03;6.85;6.99;4.15
